Hagen — V2PB3 — position and weather

sailwx.info

Track history (hours):
 
Tides and Currents Weather Stations Pressure Air Temp Water Temp Dewpoint Dewpoint Depression Visibility Wind Speed Wind Dir Waves Ship Positions

Hagen

Last reported at 2015-Apr-25 03:32 UTC. Time now 2015-Apr-28 06:51 UTC.
Position N 39°08' W 009°56'.

Length 89 m; draft 6.5 m.

Type: Cargo ship. MMSI: 304010898.

Date/timePositionNaut miles runAvg speedWind from/ knotsBaromVisibWave heightAir tempDewpointWater temp
2015-Apr-25 03:32N 39°08' W 009°56'10 9.8
2015-Apr-25 02:31N 38°58' W 009°57'9 9.9
2015-Apr-25 01:33N 38°49' W 009°57'10 9.5
2015-Apr-25 00:33N 38°39' W 009°56'9 9.3
2015-Apr-24 23:33N 38°30' W 009°53'10 9.6
2015-Apr-24 22:33N 38°21' W 009°50'9 9.3
2015-Apr-24 21:33N 38°12' W 009°47'144 8.5
2015-Apr-24 04:33N 36°21' W 007°52'1010.0
2015-Apr-24 03:32N 36°18' W 007°40'1010.0
2015-Apr-24 02:33N 36°15' W 007°28'10 9.6
2015-Apr-24 01:32N 36°13' W 007°16'29 9.8
2015-Apr-23 22:32N 36°04' W 006°42'29 8.8
2015-Apr-23 19:12N 35°58' W 006°06'24 8.7
2015-Apr-23 16:24N 35°58' W 005°36'7 8.3
2015-Apr-23 15:32N 35°60' W 005°28'8 8.1
2015-Apr-23 14:33N 35°56' W 005°19'2 2.2
2015-Apr-23 13:33N 35°54' W 005°18'0 0.0
2015-Apr-23 12:33N 35°54' W 005°18'0 0.0
2015-Apr-23 11:33N 35°54' W 005°18'1 1.4
2015-Apr-23 10:32N 35°54' W 005°20'0 0.0
2015-Apr-23 09:32N 35°54' W 005°20'0 0.1
2015-Apr-23 08:32N 35°54' W 005°20'0 0.1
2015-Apr-23 07:29N 35°54' W 005°20'0 0.0
2015-Apr-23 06:32N 35°54' W 005°20'1 1.2
2015-Apr-23 05:33N 35°55' W 005°18'316 8.9
2015-Apr-21 18:09N 36°47' E 001°08'  
2015-Apr-19 05:16N 36°52' E 013°07'9 9.4
2015-Apr-19 04:20N 36°49' E 013°17'7 9.2
2015-Apr-19 03:33N 36°46' E 013°26'10 9.6
2015-Apr-19 02:33N 36°43' E 013°37'1010.0
2015-Apr-19 01:33N 36°39' E 013°49'10 9.9
2015-Apr-19 00:33N 36°36' E 014°00'10 9.9
2015-Apr-18 23:33N 36°32' E 014°12'10 9.9
2015-Apr-18 22:33N 36°29' E 014°23'10 9.7
2015-Apr-18 21:33N 36°26' E 014°35'10 9.2
2015-Apr-18 20:31N 36°26' E 014°47'11 9.1
2015-Apr-18 19:20N 36°26' E 015°00'8 9.1
2015-Apr-18 18:28N 36°26' E 015°10'9 9.5
2015-Apr-18 17:31N 36°26' E 015°21'  
2015-Apr-15 07:26N 40°57' E 028°53'  
Track history (hours):
 
Tides and Currents Weather Stations Pressure Air Temp Water Temp Dewpoint Dewpoint Depression Visibility Wind Speed Wind Dir Waves Ship Positions

Hagen

Last reported at 2015-Apr-25 03:32 UTC. Time now 2015-Apr-28 06:51 UTC.
Position N 39°08' W 009°56'.

Length 89 m; draft 6.5 m.

Type: Cargo ship. MMSI: 304010898.

Date/timePositionNaut miles runAvg speedWind from/ knotsBaromVisibWave heightAir tempDewpointWater temp
2015-Apr-25 03:32N 39°08' W 009°56'10 9.8
2015-Apr-25 02:31N 38°58' W 009°57'9 9.9
2015-Apr-25 01:33N 38°49' W 009°57'10 9.5
2015-Apr-25 00:33N 38°39' W 009°56'9 9.3
2015-Apr-24 23:33N 38°30' W 009°53'10 9.6
2015-Apr-24 22:33N 38°21' W 009°50'9 9.3
2015-Apr-24 21:33N 38°12' W 009°47'144 8.5
2015-Apr-24 04:33N 36°21' W 007°52'1010.0
2015-Apr-24 03:32N 36°18' W 007°40'1010.0
2015-Apr-24 02:33N 36°15' W 007°28'10 9.6
2015-Apr-24 01:32N 36°13' W 007°16'29 9.8
2015-Apr-23 22:32N 36°04' W 006°42'29 8.8
2015-Apr-23 19:12N 35°58' W 006°06'24 8.7
2015-Apr-23 16:24N 35°58' W 005°36'7 8.3
2015-Apr-23 15:32N 35°60' W 005°28'8 8.1
2015-Apr-23 14:33N 35°56' W 005°19'2 2.2
2015-Apr-23 13:33N 35°54' W 005°18'0 0.0
2015-Apr-23 12:33N 35°54' W 005°18'0 0.0
2015-Apr-23 11:33N 35°54' W 005°18'1 1.4
2015-Apr-23 10:32N 35°54' W 005°20'0 0.0
2015-Apr-23 09:32N 35°54' W 005°20'0 0.1
2015-Apr-23 08:32N 35°54' W 005°20'0 0.1
2015-Apr-23 07:29N 35°54' W 005°20'0 0.0
2015-Apr-23 06:32N 35°54' W 005°20'1 1.2
2015-Apr-23 05:33N 35°55' W 005°18'316 8.9
2015-Apr-21 18:09N 36°47' E 001°08'  
2015-Apr-19 05:16N 36°52' E 013°07'9 9.4
2015-Apr-19 04:20N 36°49' E 013°17'7 9.2
2015-Apr-19 03:33N 36°46' E 013°26'10 9.6
2015-Apr-19 02:33N 36°43' E 013°37'1010.0
2015-Apr-19 01:33N 36°39' E 013°49'10 9.9
2015-Apr-19 00:33N 36°36' E 014°00'10 9.9
2015-Apr-18 23:33N 36°32' E 014°12'10 9.9
2015-Apr-18 22:33N 36°29' E 014°23'10 9.7
2015-Apr-18 21:33N 36°26' E 014°35'10 9.2
2015-Apr-18 20:31N 36°26' E 014°47'11 9.1
2015-Apr-18 19:20N 36°26' E 015°00'8 9.1
2015-Apr-18 18:28N 36°26' E 015°10'9 9.5
2015-Apr-18 17:31N 36°26' E 015°21'  
2015-Apr-15 07:26N 40°57' E 028°53'  

Dump ship's entire track history